sensor_id;sensor_type;location;lat;lon;timestamp;temperature;humidity
19728;DHT22;10015;52.530;13.390;2024-02-21T00:01:04;10.00;99.90
19728;DHT22;10015;52.530;13.390;2024-02-21T00:03:30;10.00;99.90
19728;DHT22;10015;52.530;13.390;2024-02-21T00:05:56;10.00;99.90
19728;DHT22;10015;52.530;13.390;2024-02-21T00:08:22;9.90;99.90
19728;DHT22;10015;52.530;13.390;2024-02-21T00:10:48;9.90;99.90
19728;DHT22;10015;52.530;13.390;2024-02-21T00:13:15;9.90;99.90
19728;DHT22;10015;52.530;13.390;2024-02-21T00:15:41;10.00;99.90
19728;DHT22;10015;52.530;13.390;2024-02-21T00:18:07;10.00;99.90
19728;DHT22;10015;52.530;13.390;2024-02-21T00:20:33;10.00;99.90
19728;DHT22;10015;52.530;13.390;2024-02-21T00:23:00;9.80;99.90
19728;DHT22;10015;52.530;13.390;2024-02-21T00:25:26;9.80;99.90
19728;DHT22;10015;52.530;13.390;2024-02-21T00:27:53;9.60;99.90
19728;DHT22;10015;52.530;13.390;2024-02-21T00:30:19;9.70;99.90
19728;DHT22;10015;52.530;13.390;2024-02-21T00:32:46;9.70;99.90
19728;DHT22;10015;52.530;13.390;2024-02-21T00:35:13;9.60;99.90
19728;DHT22;10015;52.530;13.390;2024-02-21T00:37:40;9.70;99.90
19728;DHT22;10015;52.530;13.390;2024-02-21T00:40:06;9.70;99.90
19728;DHT22;10015;52.530;13.390;2024-02-21T00:42:34;9.70;99.90
19728;DHT22;10015;52.530;13.390;2024-02-21T00:45:00;9.70;99.90
19728;DHT22;10015;52.530;13.390;2024-02-21T00:47:27;9.80;99.90
19728;DHT22;10015;52.530;13.390;2024-02-21T00:49:53;9.80;99.90
19728;DHT22;10015;52.530;13.390;2024-02-21T00:52:19;9.70;99.90
19728;DHT22;10015;52.530;13.390;2024-02-21T00:54:46;9.60;99.90
19728;DHT22;10015;52.530;13.390;2024-02-21T00:57:13;9.60;99.90
19728;DHT22;10015;52.530;13.390;2024-02-21T00:59:39;9.60;99.90
19728;DHT22;10015;52.530;13.390;2024-02-21T01:02:04;9.60;99.90
19728;DHT22;10015;52.530;13.390;2024-02-21T01:04:30;9.60;99.90
19728;DHT22;10015;52.530;13.390;2024-02-21T01:06:56;9.60;99.90
19728;DHT22;10015;52.530;13.390;2024-02-21T01:09:22;9.70;99.90
19728;DHT22;10015;52.530;13.390;2024-02-21T01:11:48;9.70;99.90
19728;DHT22;10015;52.530;13.390;2024-02-21T01:14:15;9.70;99.90
19728;DHT22;10015;52.530;13.390;2024-02-21T01:16:41;9.70;99.90
19728;DHT22;10015;52.530;13.390;2024-02-21T01:19:08;9.70;99.90
19728;DHT22;10015;52.530;13.390;2024-02-21T01:21:35;9.80;99.90
19728;DHT22;10015;52.530;13.390;2024-02-21T01:24:01;9.70;99.90
19728;DHT22;10015;52.530;13.390;2024-02-21T01:26:29;9.60;99.90
19728;DHT22;10015;52.530;13.390;2024-02-21T01:28:54;9.60;99.90
19728;DHT22;10015;52.530;13.390;2024-02-21T01:31:20;9.60;99.90
19728;DHT22;10015;52.530;13.390;2024-02-21T01:33:48;9.60;99.90
19728;DHT22;10015;52.530;13.390;2024-02-21T01:36:13;9.70;99.90
19728;DHT22;10015;52.530;13.390;2024-02-21T01:38:41;9.70;99.90
19728;DHT22;10015;52.530;13.390;2024-02-21T01:41:07;9.80;99.90
19728;DHT22;10015;52.530;13.390;2024-02-21T01:43:32;9.60;99.90
19728;DHT22;10015;52.530;13.390;2024-02-21T01:45:59;9.60;99.90
19728;DHT22;10015;52.530;13.390;2024-02-21T01:48:27;9.70;99.90
19728;DHT22;10015;52.530;13.390;2024-02-21T01:50:55;9.70;99.90
19728;DHT22;10015;52.530;13.390;2024-02-21T01:53:31;9.60;99.90
19728;DHT22;10015;52.530;13.390;2024-02-21T01:55:59;9.40;99.90
19728;DHT22;10015;52.530;13.390;2024-02-21T01:58:26;9.50;99.90
19728;DHT22;10015;52.530;13.390;2024-02-21T02:00:54;9.40;99.90
19728;DHT22;10015;52.530;13.390;2024-02-21T02:03:22;9.30;99.90
19728;DHT22;10015;52.530;13.390;2024-02-21T02:05:49;9.40;99.90
19728;DHT22;10015;52.530;13.390;2024-02-21T02:08:19;9.50;99.90
19728;DHT22;10015;52.530;13.390;2024-02-21T02:10:48;9.50;99.90
19728;DHT22;10015;52.530;13.390;2024-02-21T02:13:14;9.50;99.90
19728;DHT22;10015;52.530;13.390;2024-02-21T02:15:48;9.50;99.90
19728;DHT22;10015;52.530;13.390;2024-02-21T02:18:16;9.60;99.90
19728;DHT22;10015;52.530;13.390;2024-02-21T02:20:47;9.60;99.90
19728;DHT22;10015;52.530;13.390;2024-02-21T02:23:29;9.60;99.90
19728;DHT22;10015;52.530;13.390;2024-02-21T02:26:01;9.60;99.90
19728;DHT22;10015;52.530;13.390;2024-02-21T02:28:32;9.70;99.90
19728;DHT22;10015;52.530;13.390;2024-02-21T02:30:58;9.70;99.90
19728;DHT22;10015;52.530;13.390;2024-02-21T02:33:25;9.80;99.90
19728;DHT22;10015;52.530;13.390;2024-02-21T02:35:51;9.80;99.90
19728;DHT22;10015;52.530;13.390;2024-02-21T02:38:17;9.70;99.90
19728;DHT22;10015;52.530;13.390;2024-02-21T02:40:44;9.80;99.90
19728;DHT22;10015;52.530;13.390;2024-02-21T02:43:10;9.70;99.90
19728;DHT22;10015;52.530;13.390;2024-02-21T02:45:38;9.70;99.90
19728;DHT22;10015;52.530;13.390;2024-02-21T02:48:06;9.70;99.90
19728;DHT22;10015;52.530;13.390;2024-02-21T02:50:34;9.80;99.90
19728;DHT22;10015;52.530;13.390;2024-02-21T02:53:02;9.80;99.90
19728;DHT22;10015;52.530;13.390;2024-02-21T02:55:29;9.80;99.90
19728;DHT22;10015;52.530;13.390;2024-02-21T02:57:55;9.80;99.90
19728;DHT22;10015;52.530;13.390;2024-02-21T03:00:21;9.80;99.90
19728;DHT22;10015;52.530;13.390;2024-02-21T03:02:49;9.70;99.90
19728;DHT22;10015;52.530;13.390;2024-02-21T03:05:17;9.70;99.90
19728;DHT22;10015;52.530;13.390;2024-02-21T03:07:47;9.60;99.90
19728;DHT22;10015;52.530;13.390;2024-02-21T03:10:15;9.60;99.90
19728;DHT22;10015;52.530;13.390;2024-02-21T03:12:42;9.70;99.90
19728;DHT22;10015;52.530;13.390;2024-02-21T03:15:08;9.70;99.90
19728;DHT22;10015;52.530;13.390;2024-02-21T03:17:36;9.60;99.90
19728;DHT22;10015;52.530;13.390;2024-02-21T03:20:03;9.70;99.90
19728;DHT22;10015;52.530;13.390;2024-02-21T03:22:37;9.50;99.90
19728;DHT22;10015;52.530;13.390;2024-02-21T03:25:03;9.50;99.90
19728;DHT22;10015;52.530;13.390;2024-02-21T03:27:33;9.50;99.90
19728;DHT22;10015;52.530;13.390;2024-02-21T03:29:58;9.40;99.90
19728;DHT22;10015;52.530;13.390;2024-02-21T03:32:25;9.40;99.90
19728;DHT22;10015;52.530;13.390;2024-02-21T03:34:53;9.30;99.90
19728;DHT22;10015;52.530;13.390;2024-02-21T03:37:20;9.40;99.90
19728;DHT22;10015;52.530;13.390;2024-02-21T03:39:46;9.50;99.90
19728;DHT22;10015;52.530;13.390;2024-02-21T03:42:13;9.50;99.90
19728;DHT22;10015;52.530;13.390;2024-02-21T03:44:42;9.40;99.90
19728;DHT22;10015;52.530;13.390;2024-02-21T03:47:07;9.40;99.90
19728;DHT22;10015;52.530;13.390;2024-02-21T03:49:36;9.30;99.90
19728;DHT22;10015;52.530;13.390;2024-02-21T03:52:02;9.30;99.90
19728;DHT22;10015;52.530;13.390;2024-02-21T03:54:28;9.30;99.90
19728;DHT22;10015;52.530;13.390;2024-02-21T03:56:54;9.30;99.90
19728;DHT22;10015;52.530;13.390;2024-02-21T03:59:21;9.10;99.90
19728;DHT22;10015;52.530;13.390;2024-02-21T04:01:54;9.10;99.90
19728;DHT22;10015;52.530;13.390;2024-02-21T04:04:20;9.00;99.90
19728;DHT22;10015;52.530;13.390;2024-02-21T04:06:49;9.00;99.90
19728;DHT22;10015;52.530;13.390;2024-02-21T04:09:15;9.00;99.90
19728;DHT22;10015;52.530;13.390;2024-02-21T04:11:41;9.00;99.90
19728;DHT22;10015;52.530;13.390;2024-02-21T04:14:07;9.00;99.90
19728;DHT22;10015;52.530;13.390;2024-02-21T04:16:34;9.00;99.90
19728;DHT22;10015;52.530;13.390;2024-02-21T04:19:00;9.00;99.90
19728;DHT22;10015;52.530;13.390;2024-02-21T04:21:29;8.90;99.90
19728;DHT22;10015;52.530;13.390;2024-02-21T04:23:54;8.90;99.90
19728;DHT22;10015;52.530;13.390;2024-02-21T04:26:21;8.80;99.90
19728;DHT22;10015;52.530;13.390;2024-02-21T04:28:47;8.80;99.90
19728;DHT22;10015;52.530;13.390;2024-02-21T04:31:14;8.90;99.90
19728;DHT22;10015;52.530;13.390;2024-02-21T04:33:40;9.00;99.90
19728;DHT22;10015;52.530;13.390;2024-02-21T04:36:06;8.90;99.90
19728;DHT22;10015;52.530;13.390;2024-02-21T04:38:34;9.00;99.90
19728;DHT22;10015;52.530;13.390;2024-02-21T04:41:00;9.10;99.90
19728;DHT22;10015;52.530;13.390;2024-02-21T04:43:26;9.00;99.90
19728;DHT22;10015;52.530;13.390;2024-02-21T04:45:52;8.90;99.90
19728;DHT22;10015;52.530;13.390;2024-02-21T04:48:19;9.00;99.90
19728;DHT22;10015;52.530;13.390;2024-02-21T04:50:48;8.80;99.90
19728;DHT22;10015;52.530;13.390;2024-02-21T04:53:15;8.80;99.90
19728;DHT22;10015;52.530;13.390;2024-02-21T04:55:41;9.00;99.90
19728;DHT22;10015;52.530;13.390;2024-02-21T04:58:08;8.80;99.90
19728;DHT22;10015;52.530;13.390;2024-02-21T05:00:34;8.90;99.90
19728;DHT22;10015;52.530;13.390;2024-02-21T05:03:00;8.90;99.90
19728;DHT22;10015;52.530;13.390;2024-02-21T05:05:26;8.90;99.90
19728;DHT22;10015;52.530;13.390;2024-02-21T05:07:52;8.90;99.90
19728;DHT22;10015;52.530;13.390;2024-02-21T05:10:18;9.00;99.90
19728;DHT22;10015;52.530;13.390;2024-02-21T05:12:46;9.00;99.90
19728;DHT22;10015;52.530;13.390;2024-02-21T05:15:12;9.00;99.90
19728;DHT22;10015;52.530;13.390;2024-02-21T05:17:40;9.00;99.90
19728;DHT22;10015;52.530;13.390;2024-02-21T05:20:07;8.90;99.90
19728;DHT22;10015;52.530;13.390;2024-02-21T05:22:34;8.80;99.90
19728;DHT22;10015;52.530;13.390;2024-02-21T05:25:00;8.80;99.90
19728;DHT22;10015;52.530;13.390;2024-02-21T05:27:27;8.90;99.90
19728;DHT22;10015;52.530;13.390;2024-02-21T05:29:56;8.90;99.90
19728;DHT22;10015;52.530;13.390;2024-02-21T05:32:23;8.90;99.90
19728;DHT22;10015;52.530;13.390;2024-02-21T05:34:51;8.90;99.90
19728;DHT22;10015;52.530;13.390;2024-02-21T05:37:17;9.00;99.90
19728;DHT22;10015;52.530;13.390;2024-02-21T05:39:43;8.90;99.90
19728;DHT22;10015;52.530;13.390;2024-02-21T05:42:09;8.90;99.90
19728;DHT22;10015;52.530;13.390;2024-02-21T05:44:44;8.80;99.90
19728;DHT22;10015;52.530;13.390;2024-02-21T05:47:10;8.80;99.90
19728;DHT22;10015;52.530;13.390;2024-02-21T05:49:40;8.80;99.90
19728;DHT22;10015;52.530;13.390;2024-02-21T05:52:06;8.90;99.90
19728;DHT22;10015;52.530;13.390;2024-02-21T05:54:38;8.90;99.90
19728;DHT22;10015;52.530;13.390;2024-02-21T05:57:06;8.90;99.90
19728;DHT22;10015;52.530;13.390;2024-02-21T05:59:34;8.90;99.90
19728;DHT22;10015;52.530;13.390;2024-02-21T06:02:03;8.90;99.90
19728;DHT22;10015;52.530;13.390;2024-02-21T06:04:35;8.90;99.90
19728;DHT22;10015;52.530;13.390;2024-02-21T06:07:01;9.00;99.90
19728;DHT22;10015;52.530;13.390;2024-02-21T06:09:28;8.90;99.90
19728;DHT22;10015;52.530;13.390;2024-02-21T06:11:54;8.80;99.90
19728;DHT22;10015;52.530;13.390;2024-02-21T06:14:20;8.80;99.90
19728;DHT22;10015;52.530;13.390;2024-02-21T06:16:46;8.70;99.90
19728;DHT22;10015;52.530;13.390;2024-02-21T06:19:11;8.80;99.90
19728;DHT22;10015;52.530;13.390;2024-02-21T06:21:37;9.00;99.90
19728;DHT22;10015;52.530;13.390;2024-02-21T06:24:03;9.10;99.90
19728;DHT22;10015;52.530;13.390;2024-02-21T06:26:29;9.00;99.90
19728;DHT22;10015;52.530;13.390;2024-02-21T06:28:55;8.90;99.90
19728;DHT22;10015;52.530;13.390;2024-02-21T06:31:21;8.80;99.90
19728;DHT22;10015;52.530;13.390;2024-02-21T06:33:47;8.70;99.90
19728;DHT22;10015;52.530;13.390;2024-02-21T06:36:13;8.70;99.90
19728;DHT22;10015;52.530;13.390;2024-02-21T06:38:39;8.70;99.90
19728;DHT22;10015;52.530;13.390;2024-02-21T06:41:05;8.80;99.90
19728;DHT22;10015;52.530;13.390;2024-02-21T06:43:31;9.00;99.90
19728;DHT22;10015;52.530;13.390;2024-02-21T06:45:57;8.90;99.90
19728;DHT22;10015;52.530;13.390;2024-02-21T06:48:23;8.80;99.90
19728;DHT22;10015;52.530;13.390;2024-02-21T06:50:49;8.80;99.90
19728;DHT22;10015;52.530;13.390;2024-02-21T06:53:15;8.70;99.90
19728;DHT22;10015;52.530;13.390;2024-02-21T06:55:41;8.70;99.90
19728;DHT22;10015;52.530;13.390;2024-02-21T06:58:07;8.60;99.90
19728;DHT22;10015;52.530;13.390;2024-02-21T07:00:37;8.70;99.90
19728;DHT22;10015;52.530;13.390;2024-02-21T07:03:03;8.80;99.90
19728;DHT22;10015;52.530;13.390;2024-02-21T07:05:29;8.80;99.90
19728;DHT22;10015;52.530;13.390;2024-02-21T07:07:55;8.90;99.90
19728;DHT22;10015;52.530;13.390;2024-02-21T07:10:21;9.00;99.90
19728;DHT22;10015;52.530;13.390;2024-02-21T07:12:47;8.90;99.90
19728;DHT22;10015;52.530;13.390;2024-02-21T07:15:14;8.90;99.90
19728;DHT22;10015;52.530;13.390;2024-02-21T07:17:40;8.90;99.90
19728;DHT22;10015;52.530;13.390;2024-02-21T07:20:06;8.90;99.90
19728;DHT22;10015;52.530;13.390;2024-02-21T07:22:32;9.00;99.90
19728;DHT22;10015;52.530;13.390;2024-02-21T07:24:58;9.10;99.90
19728;DHT22;10015;52.530;13.390;2024-02-21T07:27:24;9.60;99.90
19728;DHT22;10015;52.530;13.390;2024-02-21T07:29:54;9.40;99.90
19728;DHT22;10015;52.530;13.390;2024-02-21T07:32:20;9.40;99.90
19728;DHT22;10015;52.530;13.390;2024-02-21T07:34:45;9.50;99.90
19728;DHT22;10015;52.530;13.390;2024-02-21T07:37:11;9.40;99.90
19728;DHT22;10015;52.530;13.390;2024-02-21T07:39:37;9.40;99.90
19728;DHT22;10015;52.530;13.390;2024-02-21T07:42:04;9.40;99.90
19728;DHT22;10015;52.530;13.390;2024-02-21T07:44:30;9.50;99.90
19728;DHT22;10015;52.530;13.390;2024-02-21T07:46:57;9.50;99.90
19728;DHT22;10015;52.530;13.390;2024-02-21T07:49:23;9.40;99.90
19728;DHT22;10015;52.530;13.390;2024-02-21T07:51:49;9.40;99.90
19728;DHT22;10015;52.530;13.390;2024-02-21T07:54:15;9.50;99.90
19728;DHT22;10015;52.530;13.390;2024-02-21T07:56:41;9.30;99.90
19728;DHT22;10015;52.530;13.390;2024-02-21T07:59:07;9.30;99.90
19728;DHT22;10015;52.530;13.390;2024-02-21T08:01:33;9.30;99.90
19728;DHT22;10015;52.530;13.390;2024-02-21T08:03:59;9.40;99.90
19728;DHT22;10015;52.530;13.390;2024-02-21T08:06:25;9.40;99.90
19728;DHT22;10015;52.530;13.390;2024-02-21T08:08:51;9.20;99.90
19728;DHT22;10015;52.530;13.390;2024-02-21T08:11:17;9.20;99.90
19728;DHT22;10015;52.530;13.390;2024-02-21T08:13:43;9.40;99.90
19728;DHT22;10015;52.530;13.390;2024-02-21T08:16:09;9.50;99.90
19728;DHT22;10015;52.530;13.390;2024-02-21T08:18:35;9.60;99.90
19728;DHT22;10015;52.530;13.390;2024-02-21T08:21:04;9.60;99.90
19728;DHT22;10015;52.530;13.390;2024-02-21T08:23:30;9.40;99.90
19728;DHT22;10015;52.530;13.390;2024-02-21T08:25:55;9.40;99.90
19728;DHT22;10015;52.530;13.390;2024-02-21T08:28:22;9.50;99.90
19728;DHT22;10015;52.530;13.390;2024-02-21T08:30:48;9.50;99.90
19728;DHT22;10015;52.530;13.390;2024-02-21T08:33:15;9.70;99.90
19728;DHT22;10015;52.530;13.390;2024-02-21T08:35:42;9.70;99.90
19728;DHT22;10015;52.530;13.390;2024-02-21T08:38:08;9.70;99.90
19728;DHT22;10015;52.530;13.390;2024-02-21T08:40:34;9.70;99.90
19728;DHT22;10015;52.530;13.390;2024-02-21T08:43:01;9.80;99.90
19728;DHT22;10015;52.530;13.390;2024-02-21T08:45:27;9.90;99.90
19728;DHT22;10015;52.530;13.390;2024-02-21T08:47:53;9.90;99.90
19728;DHT22;10015;52.530;13.390;2024-02-21T08:50:19;9.90;99.90
19728;DHT22;10015;52.530;13.390;2024-02-21T08:52:44;10.00;99.90
19728;DHT22;10015;52.530;13.390;2024-02-21T08:55:10;10.10;99.90
19728;DHT22;10015;52.530;13.390;2024-02-21T08:57:36;10.00;99.90
19728;DHT22;10015;52.530;13.390;2024-02-21T09:00:04;10.00;99.90
19728;DHT22;10015;52.530;13.390;2024-02-21T09:02:40;10.00;99.90
19728;DHT22;10015;52.530;13.390;2024-02-21T09:05:07;10.10;99.90
19728;DHT22;10015;52.530;13.390;2024-02-21T09:07:33;10.80;99.90
19728;DHT22;10015;52.530;13.390;2024-02-21T09:09:59;11.80;99.90
19728;DHT22;10015;52.530;13.390;2024-02-21T09:12:25;12.20;99.90
19728;DHT22;10015;52.530;13.390;2024-02-21T09:14:51;12.10;99.90
19728;DHT22;10015;52.530;13.390;2024-02-21T09:17:17;11.80;99.90
19728;DHT22;10015;52.530;13.390;2024-02-21T09:19:44;11.60;99.90
19728;DHT22;10015;52.530;13.390;2024-02-21T09:22:10;11.40;99.90
19728;DHT22;10015;52.530;13.390;2024-02-21T09:24:36;11.30;99.90
19728;DHT22;10015;52.530;13.390;2024-02-21T09:27:02;11.10;99.90
19728;DHT22;10015;52.530;13.390;2024-02-21T09:29:31;11.00;99.90
19728;DHT22;10015;52.530;13.390;2024-02-21T09:31:59;10.90;99.90
19728;DHT22;10015;52.530;13.390;2024-02-21T09:34:25;10.60;99.90
19728;DHT22;10015;52.530;13.390;2024-02-21T09:36:52;10.50;99.90
19728;DHT22;10015;52.530;13.390;2024-02-21T09:39:18;10.60;99.90
19728;DHT22;10015;52.530;13.390;2024-02-21T09:41:50;10.50;99.90
19728;DHT22;10015;52.530;13.390;2024-02-21T09:44:21;10.50;99.90
19728;DHT22;10015;52.530;13.390;2024-02-21T09:46:55;10.50;99.90
19728;DHT22;10015;52.530;13.390;2024-02-21T09:49:32;10.50;99.90
19728;DHT22;10015;52.530;13.390;2024-02-21T09:52:01;10.60;99.90
19728;DHT22;10015;52.530;13.390;2024-02-21T09:54:35;10.60;99.90
19728;DHT22;10015;52.530;13.390;2024-02-21T09:57:02;10.80;99.90
19728;DHT22;10015;52.530;13.390;2024-02-21T09:59:30;10.70;99.90
19728;DHT22;10015;52.530;13.390;2024-02-21T10:01:56;10.60;99.90
19728;DHT22;10015;52.530;13.390;2024-02-21T10:04:23;10.60;99.90
19728;DHT22;10015;52.530;13.390;2024-02-21T10:06:53;10.60;99.90
19728;DHT22;10015;52.530;13.390;2024-02-21T10:09:27;10.70;99.90
19728;DHT22;10015;52.530;13.390;2024-02-21T10:12:07;10.70;99.90
19728;DHT22;10015;52.530;13.390;2024-02-21T10:14:33;10.50;99.90
19728;DHT22;10015;52.530;13.390;2024-02-21T10:16:59;10.50;99.90
19728;DHT22;10015;52.530;13.390;2024-02-21T10:19:25;10.60;99.90
19728;DHT22;10015;52.530;13.390;2024-02-21T10:22:04;10.70;99.90
19728;DHT22;10015;52.530;13.390;2024-02-21T10:24:31;10.80;99.90
19728;DHT22;10015;52.530;13.390;2024-02-21T10:27:02;10.80;99.90
19728;DHT22;10015;52.530;13.390;2024-02-21T10:29:32;11.20;99.90
19728;DHT22;10015;52.530;13.390;2024-02-21T10:34:34;11.20;99.90
19728;DHT22;10015;52.530;13.390;2024-02-21T10:37:10;11.10;99.90
19728;DHT22;10015;52.530;13.390;2024-02-21T10:39:38;11.00;99.90
19728;DHT22;10015;52.530;13.390;2024-02-21T10:42:05;11.10;99.90
19728;DHT22;10015;52.530;13.390;2024-02-21T10:44:34;11.10;99.90
19728;DHT22;10015;52.530;13.390;2024-02-21T10:47:07;11.10;99.90
19728;DHT22;10015;52.530;13.390;2024-02-21T10:49:41;11.00;99.90
19728;DHT22;10015;52.530;13.390;2024-02-21T10:54:56;10.90;99.90
19728;DHT22;10015;52.530;13.390;2024-02-21T10:57:25;11.00;99.90
19728;DHT22;10015;52.530;13.390;2024-02-21T10:59:55;11.00;99.90
19728;DHT22;10015;52.530;13.390;2024-02-21T11:02:23;11.00;99.90
19728;DHT22;10015;52.530;13.390;2024-02-21T11:04:50;10.90;99.90
19728;DHT22;10015;52.530;13.390;2024-02-21T11:07:24;11.00;99.90
19728;DHT22;10015;52.530;13.390;2024-02-21T11:09:51;11.10;99.90
19728;DHT22;10015;52.530;13.390;2024-02-21T11:12:21;11.10;99.90
19728;DHT22;10015;52.530;13.390;2024-02-21T11:14:48;11.10;99.90
19728;DHT22;10015;52.530;13.390;2024-02-21T11:17:18;11.10;99.90
19728;DHT22;10015;52.530;13.390;2024-02-21T11:19:45;11.10;99.90
19728;DHT22;10015;52.530;13.390;2024-02-21T11:22:18;11.10;99.90
19728;DHT22;10015;52.530;13.390;2024-02-21T11:24:45;11.40;99.90
19728;DHT22;10015;52.530;13.390;2024-02-21T11:27:15;11.50;99.90
19728;DHT22;10015;52.530;13.390;2024-02-21T11:29:45;11.60;99.90
19728;DHT22;10015;52.530;13.390;2024-02-21T11:32:14;11.60;99.90
19728;DHT22;10015;52.530;13.390;2024-02-21T11:34:41;11.60;99.90
19728;DHT22;10015;52.530;13.390;2024-02-21T11:37:14;11.90;99.90
19728;DHT22;10015;52.530;13.390;2024-02-21T11:39:43;11.80;99.90
19728;DHT22;10015;52.530;13.390;2024-02-21T11:42:09;12.00;99.90
19728;DHT22;10015;52.530;13.390;2024-02-21T11:44:36;11.90;99.90
19728;DHT22;10015;52.530;13.390;2024-02-21T11:47:09;12.00;99.90
19728;DHT22;10015;52.530;13.390;2024-02-21T11:49:43;12.00;99.90
19728;DHT22;10015;52.530;13.390;2024-02-21T11:52:09;12.20;99.90
19728;DHT22;10015;52.530;13.390;2024-02-21T11:54:35;12.20;99.90
19728;DHT22;10015;52.530;13.390;2024-02-21T11:57:01;12.20;99.90
19728;DHT22;10015;52.530;13.390;2024-02-21T11:59:30;12.10;99.90
19728;DHT22;10015;52.530;13.390;2024-02-21T12:02:01;12.00;99.90
19728;DHT22;10015;52.530;13.390;2024-02-21T12:04:29;12.20;99.90
19728;DHT22;10015;52.530;13.390;2024-02-21T12:06:58;12.30;99.90
19728;DHT22;10015;52.530;13.390;2024-02-21T12:09:25;12.40;99.90
19728;DHT22;10015;52.530;13.390;2024-02-21T12:12:19;12.50;99.90
19728;DHT22;10015;52.530;13.390;2024-02-21T12:14:45;12.30;99.90
19728;DHT22;10015;52.530;13.390;2024-02-21T12:17:11;12.60;99.90
19728;DHT22;10015;52.530;13.390;2024-02-21T12:19:38;12.80;99.90
19728;DHT22;10015;52.530;13.390;2024-02-21T12:22:04;12.60;99.90
19728;DHT22;10015;52.530;13.390;2024-02-21T12:24:31;12.70;99.90
19728;DHT22;10015;52.530;13.390;2024-02-21T12:26:57;12.80;99.90
19728;DHT22;10015;52.530;13.390;2024-02-21T12:29:29;12.90;99.90
19728;DHT22;10015;52.530;13.390;2024-02-21T12:31:55;13.10;99.90
19728;DHT22;10015;52.530;13.390;2024-02-21T12:34:23;12.90;99.90
19728;DHT22;10015;52.530;13.390;2024-02-21T12:36:49;12.90;99.90
19728;DHT22;10015;52.530;13.390;2024-02-21T12:39:15;12.90;99.90
19728;DHT22;10015;52.530;13.390;2024-02-21T12:41:43;12.90;99.90
19728;DHT22;10015;52.530;13.390;2024-02-21T12:44:10;12.80;99.90
19728;DHT22;10015;52.530;13.390;2024-02-21T12:46:37;12.70;99.90
19728;DHT22;10015;52.530;13.390;2024-02-21T12:49:04;12.70;99.90
19728;DHT22;10015;52.530;13.390;2024-02-21T12:51:31;12.70;99.90
19728;DHT22;10015;52.530;13.390;2024-02-21T12:53:57;12.60;99.90
19728;DHT22;10015;52.530;13.390;2024-02-21T12:56:23;12.60;99.90
19728;DHT22;10015;52.530;13.390;2024-02-21T12:58:50;12.70;99.90
19728;DHT22;10015;52.530;13.390;2024-02-21T13:01:17;12.70;99.90
19728;DHT22;10015;52.530;13.390;2024-02-21T13:03:43;12.80;99.90
19728;DHT22;10015;52.530;13.390;2024-02-21T13:06:09;12.70;99.90
19728;DHT22;10015;52.530;13.390;2024-02-21T13:08:38;12.60;99.90
19728;DHT22;10015;52.530;13.390;2024-02-21T13:11:04;12.70;99.90
19728;DHT22;10015;52.530;13.390;2024-02-21T13:13:30;12.70;99.90
19728;DHT22;10015;52.530;13.390;2024-02-21T13:15:58;12.50;99.90
19728;DHT22;10015;52.530;13.390;2024-02-21T13:18:24;12.30;99.90
19728;DHT22;10015;52.530;13.390;2024-02-21T13:20:50;12.40;99.90
19728;DHT22;10015;52.530;13.390;2024-02-21T13:23:16;12.40;99.90
19728;DHT22;10015;52.530;13.390;2024-02-21T13:25:42;12.40;99.90
19728;DHT22;10015;52.530;13.390;2024-02-21T13:28:09;12.50;99.90
19728;DHT22;10015;52.530;13.390;2024-02-21T13:30:35;12.50;99.90
19728;DHT22;10015;52.530;13.390;2024-02-21T13:33:01;12.60;99.90
19728;DHT22;10015;52.530;13.390;2024-02-21T13:35:29;12.70;99.90
19728;DHT22;10015;52.530;13.390;2024-02-21T13:37:55;12.70;99.90
19728;DHT22;10015;52.530;13.390;2024-02-21T13:40:21;12.40;99.90
19728;DHT22;10015;52.530;13.390;2024-02-21T13:42:47;12.30;99.90
19728;DHT22;10015;52.530;13.390;2024-02-21T13:45:14;12.20;99.90
19728;DHT22;10015;52.530;13.390;2024-02-21T13:47:40;12.30;99.90
19728;DHT22;10015;52.530;13.390;2024-02-21T13:50:07;12.80;99.90
19728;DHT22;10015;52.530;13.390;2024-02-21T13:52:37;13.00;99.90
19728;DHT22;10015;52.530;13.390;2024-02-21T13:55:03;12.70;99.90
19728;DHT22;10015;52.530;13.390;2024-02-21T13:57:29;13.00;99.90
19728;DHT22;10015;52.530;13.390;2024-02-21T13:59:55;13.40;99.90
19728;DHT22;10015;52.530;13.390;2024-02-21T14:02:21;13.40;99.90
19728;DHT22;10015;52.530;13.390;2024-02-21T14:04:47;13.50;99.90
19728;DHT22;10015;52.530;13.390;2024-02-21T14:07:13;13.40;99.90
19728;DHT22;10015;52.530;13.390;2024-02-21T14:09:39;13.40;99.90
19728;DHT22;10015;52.530;13.390;2024-02-21T14:12:06;13.30;99.90
19728;DHT22;10015;52.530;13.390;2024-02-21T14:14:35;13.20;99.90
19728;DHT22;10015;52.530;13.390;2024-02-21T14:17:03;13.10;99.90
19728;DHT22;10015;52.530;13.390;2024-02-21T14:19:32;12.80;99.90
19728;DHT22;10015;52.530;13.390;2024-02-21T14:21:58;12.60;99.90
19728;DHT22;10015;52.530;13.390;2024-02-21T14:24:24;12.40;99.90
19728;DHT22;10015;52.530;13.390;2024-02-21T14:26:50;12.50;99.90
19728;DHT22;10015;52.530;13.390;2024-02-21T14:29:16;12.50;99.90
19728;DHT22;10015;52.530;13.390;2024-02-21T14:31:42;12.60;99.90
19728;DHT22;10015;52.530;13.390;2024-02-21T14:34:08;12.50;99.90
19728;DHT22;10015;52.530;13.390;2024-02-21T14:36:34;12.50;99.90
19728;DHT22;10015;52.530;13.390;2024-02-21T14:39:00;12.50;99.90
19728;DHT22;10015;52.530;13.390;2024-02-21T14:41:26;12.40;99.90
19728;DHT22;10015;52.530;13.390;2024-02-21T14:43:53;12.30;99.90
19728;DHT22;10015;52.530;13.390;2024-02-21T14:46:21;12.10;99.90
19728;DHT22;10015;52.530;13.390;2024-02-21T14:48:47;12.20;99.90
19728;DHT22;10015;52.530;13.390;2024-02-21T14:51:13;12.10;99.90
19728;DHT22;10015;52.530;13.390;2024-02-21T14:53:39;12.10;99.90
19728;DHT22;10015;52.530;13.390;2024-02-21T14:56:05;12.20;99.90
19728;DHT22;10015;52.530;13.390;2024-02-21T14:58:32;12.10;99.90
19728;DHT22;10015;52.530;13.390;2024-02-21T15:00:58;12.20;99.90
19728;DHT22;10015;52.530;13.390;2024-02-21T15:03:24;12.10;99.90
19728;DHT22;10015;52.530;13.390;2024-02-21T15:05:53;12.30;99.90
19728;DHT22;10015;52.530;13.390;2024-02-21T15:08:20;12.30;99.90
19728;DHT22;10015;52.530;13.390;2024-02-21T15:10:46;12.30;99.90
19728;DHT22;10015;52.530;13.390;2024-02-21T15:13:12;12.10;99.90
19728;DHT22;10015;52.530;13.390;2024-02-21T15:15:38;12.20;99.90
19728;DHT22;10015;52.530;13.390;2024-02-21T15:18:05;12.20;99.90
19728;DHT22;10015;52.530;13.390;2024-02-21T15:20:33;12.20;99.90
19728;DHT22;10015;52.530;13.390;2024-02-21T15:22:59;12.20;99.90
19728;DHT22;10015;52.530;13.390;2024-02-21T15:25:26;12.00;99.90
19728;DHT22;10015;52.530;13.390;2024-02-21T15:27:52;11.90;99.90
19728;DHT22;10015;52.530;13.390;2024-02-21T15:30:19;12.00;99.90